Time;durP1;ratioP1;P1;durP2;ratioP2;P2;SDS_P1;SDS_P2;PMS_P1;PMS_P2;Temp;Humidity;BMP_temperature;BMP_pressure;BME280_temperature;BME280_humidity;BME280_pressure;Samples;Min_cycle;Max_cycle;Signal;HPM_P1;HPM_P2
2022/09/19 00:02:24;;;;;;;;;;;17.10;56.60;;;;;;6037760;23;20191;-69
2022/09/19 00:04:50;;;;;;;;;;;17.20;56.40;;;;;;6062703;23;19910;-69
2022/09/19 00:07:17;;;;;;;;;;;17.20;56.10;;;;;;6063084;23;19992;-70
2022/09/19 00:09:43;;;;;;;;;;;17.20;55.50;;;;;;6063114;23;19925;-70
2022/09/19 00:12:10;;;;;;;;;;;17.20;55.40;;;;;;6062983;23;20326;-67
2022/09/19 00:14:37;;;;;;;;;;;17.20;55.90;;;;;;6063162;23;19980;-68
2022/09/19 00:17:07;;;;;;;;;;;17.30;55.70;;;;;;6063503;23;19914;-68
2022/09/19 00:19:36;;;;;;;;;;;17.30;55.50;;;;;;6038219;23;19917;-68
2022/09/19 00:24:48;;;;;;;;;;;17.30;54.20;;;;;;6132604;23;19935;-68
2022/09/19 00:27:16;;;;;;;;;;;17.30;53.90;;;;;;6150110;23;19915;-69
2022/09/19 00:29:43;;;;;;;;;;;17.30;53.90;;;;;;6150678;23;19912;-69
2022/09/19 00:32:12;;;;;;;;;;;17.30;54.70;;;;;;6150333;23;20032;-69
2022/09/19 00:34:40;;;;;;;;;;;17.40;54.60;;;;;;6150192;23;19912;-69
2022/09/19 00:37:07;;;;;;;;;;;17.50;54.20;;;;;;6123848;23;19912;-68
2022/09/19 00:39:33;;;;;;;;;;;17.60;54.00;;;;;;6150303;23;19996;-69
2022/09/19 00:42:00;;;;;;;;;;;17.70;52.50;;;;;;6148673;23;20100;-67
2022/09/19 00:44:27;;;;;;;;;;;17.80;52.50;;;;;;6149989;23;20031;-67
2022/09/19 00:47:06;;;;;;;;;;;17.80;50.70;;;;;;6149536;23;19915;-67
2022/09/19 00:49:37;;;;;;;;;;;17.90;51.00;;;;;;6124003;23;19912;-67
2022/09/19 00:52:05;;;;;;;;;;;17.90;51.90;;;;;;6124191;23;20228;-67
2022/09/19 00:54:32;;;;;;;;;;;18.00;51.60;;;;;;6121960;23;20299;-67
2022/09/19 00:56:59;;;;;;;;;;;18.00;51.00;;;;;;6125532;23;19909;-67
2022/09/19 00:59:26;;;;;;;;;;;18.10;49.70;;;;;;6152498;23;19909;-65
2022/09/19 01:01:56;;;;;;;;;;;18.20;48.30;;;;;;6125893;23;19909;-66
2022/09/19 01:04:23;;;;;;;;;;;18.20;46.90;;;;;;6150910;23;19963;-67
2022/09/19 01:06:50;;;;;;;;;;;18.30;47.40;;;;;;6151047;23;20252;-68
2022/09/19 01:09:19;;;;;;;;;;;18.30;45.80;;;;;;6151351;23;19911;-68
2022/09/19 01:11:59;;;;;;;;;;;18.30;45.90;;;;;;6151680;23;19923;-68
2022/09/19 01:14:44;;;;;;;;;;;18.40;45.90;;;;;;6125517;23;19913;-68
2022/09/19 01:17:12;;;;;;;;;;;18.40;45.50;;;;;;6151265;23;20396;-69
2022/09/19 01:20:11;;;;;;;;;;;18.40;46.40;;;;;;6125042;23;19951;-68
2022/09/19 01:22:45;;;;;;;;;;;18.50;45.60;;;;;;6126150;23;20236;-68
2022/09/19 02:56:36;;;;;;;;;;;19.20;44.00;;;;;;6141909;23;19931;-68
2022/09/19 02:59:09;;;;;;;;;;;19.20;44.70;;;;;;6150721;23;20000;-69
2022/09/19 03:01:37;;;;;;;;;;;19.20;45.00;;;;;;6125213;23;19967;-70
2022/09/19 03:04:13;;;;;;;;;;;19.30;45.90;;;;;;6125593;23;19915;-70
2022/09/19 03:06:42;;;;;;;;;;;19.30;45.70;;;;;;6126933;23;20288;-69
2022/09/19 03:09:08;;;;;;;;;;;19.30;45.50;;;;;;6125147;23;20304;-70
2022/09/19 03:11:35;;;;;;;;;;;19.30;44.70;;;;;;6125522;23;20259;-70
2022/09/19 03:14:01;;;;;;;;;;;19.30;45.70;;;;;;6125125;23;20402;-70
2022/09/19 03:16:34;;;;;;;;;;;19.30;45.20;;;;;;6151250;23;19913;-70
2022/09/19 03:19:01;;;;;;;;;;;19.20;44.20;;;;;;6151323;23;19915;-70
2022/09/19 03:21:28;;;;;;;;;;;19.20;44.10;;;;;;6122575;23;19904;-70
2022/09/19 03:23:58;;;;;;;;;;;19.10;44.80;;;;;;6125141;23;19939;-70
2022/09/19 03:26:30;;;;;;;;;;;19.10;45.90;;;;;;6150780;23;20010;-68
2022/09/19 03:28:57;;;;;;;;;;;19.20;42.50;;;;;;6150439;23;19991;-68
2022/09/19 03:31:24;;;;;;;;;;;19.20;42.90;;;;;;6151097;23;20304;-69
2022/09/19 03:33:51;;;;;;;;;;;19.20;43.80;;;;;;6150858;23;19908;-70
2022/09/19 03:36:18;;;;;;;;;;;19.20;43.70;;;;;;6151428;23;20209;-67
2022/09/19 03:38:45;;;;;;;;;;;19.20;43.80;;;;;;6150335;23;19908;-68
2022/09/19 03:41:12;;;;;;;;;;;19.20;43.80;;;;;;6150247;23;19913;-68
2022/09/19 03:43:42;;;;;;;;;;;19.30;44.50;;;;;;6150702;23;19968;-69
2022/09/19 03:46:12;;;;;;;;;;;19.30;43.90;;;;;;6151490;23;19916;-68
2022/09/19 03:48:39;;;;;;;;;;;19.30;43.80;;;;;;6151236;23;19915;-68
2022/09/19 03:51:06;;;;;;;;;;;19.40;43.80;;;;;;6150401;23;19960;-69
2022/09/19 03:53:33;;;;;;;;;;;19.50;42.40;;;;;;6150521;23;19936;-68
2022/09/19 03:56:00;;;;;;;;;;;19.60;41.70;;;;;;6150796;23;19948;-67
2022/09/19 03:58:30;;;;;;;;;;;19.60;42.10;;;;;;6107853;23;19925;-69
2022/09/19 04:00:57;;;;;;;;;;;19.50;43.20;;;;;;6120872;23;20055;-68
2022/09/19 04:03:25;;;;;;;;;;;19.60;43.50;;;;;;6120764;23;20408;-67
2022/09/19 04:05:51;;;;;;;;;;;19.50;42.80;;;;;;6121160;23;19905;-68
2022/09/19 04:08:19;;;;;;;;;;;19.40;44.30;;;;;;6121264;23;19917;-69
2022/09/19 04:10:45;;;;;;;;;;;19.40;44.20;;;;;;6120983;23;19917;-69
2022/09/19 04:13:12;;;;;;;;;;;19.30;43.80;;;;;;6121433;23;20522;-69
2022/09/19 04:15:39;;;;;;;;;;;19.30;43.30;;;;;;6121480;23;20339;-66
2022/09/19 04:18:05;;;;;;;;;;;19.20;43.40;;;;;;6121129;23;19909;-66
2022/09/19 04:20:32;;;;;;;;;;;19.20;43.80;;;;;;6092873;23;19929;-67
2022/09/19 04:23:02;;;;;;;;;;;19.30;43.80;;;;;;6095079;23;19940;-67
2022/09/19 04:25:35;;;;;;;;;;;19.30;42.70;;;;;;6120923;23;19905;-66
2022/09/19 04:28:03;;;;;;;;;;;19.30;42.40;;;;;;6119037;23;19927;-66
2022/09/19 04:30:34;;;;;;;;;;;19.20;42.70;;;;;;6094447;23;19921;-66
2022/09/19 04:33:04;;;;;;;;;;;19.30;41.80;;;;;;6120565;23;19909;-68
2022/09/19 04:35:35;;;;;;;;;;;19.30;43.10;;;;;;6095426;23;20241;-69
2022/09/19 04:38:02;;;;;;;;;;;19.40;41.80;;;;;;6121417;23;19916;-69
2022/09/19 04:40:28;;;;;;;;;;;19.40;42.40;;;;;;6095090;23;19919;-69
2022/09/19 04:42:56;;;;;;;;;;;19.40;42.00;;;;;;6121010;23;19916;-68
2022/09/19 04:45:22;;;;;;;;;;;19.40;42.90;;;;;;6120672;23;19915;-68
2022/09/19 04:47:49;;;;;;;;;;;19.50;39.50;;;;;;6120634;23;20240;-69
2022/09/19 04:50:17;;;;;;;;;;;19.60;40.30;;;;;;6120900;23;20036;-68
2022/09/19 04:52:44;;;;;;;;;;;19.70;40.80;;;;;;6120937;23;19909;-68
2022/09/19 04:55:10;;;;;;;;;;;19.60;41.50;;;;;;6121066;23;19938;-68
2022/09/19 07:03:55;;;;;;;;;;;18.20;46.10;;;;;;6146148;23;20464;-68
2022/09/19 07:06:21;;;;;;;;;;;18.20;46.90;;;;;;6151422;23;19912;-68
2022/09/19 07:08:48;;;;;;;;;;;18.20;47.30;;;;;;6151859;23;19912;-68
2022/09/19 07:11:15;;;;;;;;;;;18.20;47.40;;;;;;6149983;23;20347;-69
2022/09/19 07:13:43;;;;;;;;;;;18.20;47.40;;;;;;6123847;23;19905;-69
2022/09/19 07:16:09;;;;;;;;;;;18.10;47.60;;;;;;6151383;23;19931;-68
2022/09/19 07:18:37;;;;;;;;;;;18.10;47.50;;;;;;6125397;23;19908;-68
2022/09/19 07:21:04;;;;;;;;;;;18.00;48.30;;;;;;6148345;23;19908;-68
2022/09/19 07:23:30;;;;;;;;;;;18.00;48.20;;;;;;6151020;23;20315;-66
2022/09/19 07:25:57;;;;;;;;;;;18.00;48.20;;;;;;6149661;23;19983;-67
2022/09/19 07:28:23;;;;;;;;;;;18.00;48.70;;;;;;6150259;23;19956;-66
2022/09/19 07:30:50;;;;;;;;;;;17.90;48.00;;;;;;6150644;23;19913;-68
2022/09/19 07:33:19;;;;;;;;;;;17.90;47.40;;;;;;6148797;23;19920;-68
2022/09/19 07:35:46;;;;;;;;;;;17.90;47.80;;;;;;6150969;23;19912;-68
2022/09/19 07:38:14;;;;;;;;;;;17.90;48.10;;;;;;6150686;23;19963;-68
2022/09/19 07:40:41;;;;;;;;;;;17.90;48.20;;;;;;6150866;23;19915;-68
2022/09/19 07:43:07;;;;;;;;;;;17.80;47.10;;;;;;6150422;23;19908;-68
2022/09/19 07:45:35;;;;;;;;;;;17.80;47.10;;;;;;6151144;23;19916;-68
2022/09/19 07:48:02;;;;;;;;;;;17.80;46.80;;;;;;6151029;23;19905;-67
2022/09/19 07:50:28;;;;;;;;;;;17.80;47.50;;;;;;6151473;23;19920;-68
2022/09/19 07:53:10;;;;;;;;;;;17.80;47.00;;;;;;6151193;23;19936;-70
2022/09/19 07:55:36;;;;;;;;;;;17.80;47.20;;;;;;6125504;23;19911;-68
2022/09/19 07:58:03;;;;;;;;;;;17.80;47.70;;;;;;6151022;23;19909;-69
2022/09/19 08:00:30;;;;;;;;;;;17.80;49.00;;;;;;6125161;23;20317;-68
2022/09/19 08:02:57;;;;;;;;;;;17.80;49.70;;;;;;6124081;23;20299;-69
2022/09/19 08:05:24;;;;;;;;;;;17.80;50.20;;;;;;6149714;23;19916;-69
2022/09/19 08:07:51;;;;;;;;;;;17.70;50.20;;;;;;6150753;23;19905;-69
2022/09/19 08:10:17;;;;;;;;;;;17.70;49.70;;;;;;6124858;23;20072;-68
2022/09/19 08:12:44;;;;;;;;;;;17.70;49.70;;;;;;6150923;23;19916;-67
2022/09/19 08:15:15;;;;;;;;;;;17.70;50.00;;;;;;6150871;23;20312;-70
2022/09/19 08:17:57;;;;;;;;;;;17.70;49.80;;;;;;6150752;23;19913;-69
2022/09/19 08:20:27;;;;;;;;;;;17.70;50.40;;;;;;6148555;23;20003;-70
2022/09/19 08:22:56;;;;;;;;;;;17.70;50.30;;;;;;6151544;23;19913;-70
2022/09/19 08:25:25;;;;;;;;;;;17.70;50.10;;;;;;6150711;23;19947;-67
2022/09/19 08:27:52;;;;;;;;;;;17.60;50.60;;;;;;6124498;23;19913;-67
2022/09/19 08:30:19;;;;;;;;;;;17.70;50.70;;;;;;6124303;23;19924;-67
2022/09/19 09:43:27;;;;;;;;;;;17.00;55.90;;;;;;6148369;23;20342;-72
2022/09/19 09:45:54;;;;;;;;;;;16.90;56.50;;;;;;6122894;23;19992;-70
2022/09/19 09:48:26;;;;;;;;;;;16.80;56.70;;;;;;6096618;23;19913;-70
2022/09/19 09:51:02;;;;;;;;;;;16.70;57.00;;;;;;6097082;23;19917;-70
2022/09/19 09:53:29;;;;;;;;;;;16.70;57.40;;;;;;6122217;23;20236;-70
2022/09/19 09:56:17;;;;;;;;;;;16.70;57.50;;;;;;6123054;23;19908;-70
2022/09/19 09:58:59;;;;;;;;;;;16.70;57.80;;;;;;6055338;23;20341;-71
2022/09/19 10:04:36;;;;;;;;;;;16.60;58.40;;;;;;6041428;23;19957;-73
2022/09/19 10:07:13;;;;;;;;;;;16.60;58.20;;;;;;6010122;23;20246;-74
2022/09/19 10:09:50;;;;;;;;;;;16.50;58.00;;;;;;6035632;23;19917;-70
2022/09/19 10:12:23;;;;;;;;;;;16.50;58.70;;;;;;6009748;23;19910;-71
2022/09/19 10:14:51;;;;;;;;;;;16.40;59.30;;;;;;6009140;23;19906;-69
2022/09/19 10:17:19;;;;;;;;;;;16.40;59.40;;;;;;6010624;23;20338;-69
2022/09/19 10:19:46;;;;;;;;;;;16.30;59.20;;;;;;6033768;23;19917;-69
2022/09/19 10:22:16;;;;;;;;;;;16.30;59.60;;;;;;6007768;23;19985;-69
2022/09/19 10:24:58;;;;;;;;;;;16.20;60.10;;;;;;6034872;23;20603;-69
2022/09/19 10:27:26;;;;;;;;;;;16.20;60.20;;;;;;6033897;23;20227;-68
2022/09/19 10:30:00;;;;;;;;;;;16.20;60.30;;;;;;6008482;23;20260;-69
2022/09/19 10:32:48;;;;;;;;;;;16.20;60.50;;;;;;6033898;23;19938;-67
2022/09/19 10:35:26;;;;;;;;;;;16.20;60.40;;;;;;6034381;23;19906;-70
2022/09/19 10:37:59;;;;;;;;;;;16.20;60.20;;;;;;6034406;23;19938;-69
2022/09/19 10:40:26;;;;;;;;;;;16.20;60.30;;;;;;6034130;23;20321;-74
2022/09/19 10:42:54;;;;;;;;;;;16.20;60.50;;;;;;6034807;23;19906;-72
2022/09/19 10:45:25;;;;;;;;;;;16.20;60.60;;;;;;6033797;23;20345;-73
2022/09/19 10:47:54;;;;;;;;;;;16.20;61.00;;;;;;6033144;23;20519;-72
2022/09/19 10:50:21;;;;;;;;;;;16.10;60.90;;;;;;6009085;23;20047;-74
2022/09/19 10:52:48;;;;;;;;;;;16.10;61.00;;;;;;6034178;23;19910;-74
2022/09/19 10:55:15;;;;;;;;;;;16.10;61.40;;;;;;6035037;23;19970;-73
2022/09/19 12:51:08;;;;;;;;;;;15.30;58.50;;;;;;6143941;23;20315;-73
2022/09/19 12:53:40;;;;;;;;;;;15.30;58.80;;;;;;6102106;23;20530;-72
2022/09/19 12:56:13;;;;;;;;;;;15.20;60.00;;;;;;6150670;23;20411;-72
2022/09/19 12:59:09;;;;;;;;;;;15.20;60.00;;;;;;6151433;23;20423;-72
2022/09/19 13:01:38;;;;;;;;;;;15.20;57.40;;;;;;6138989;23;19904;-72
2022/09/19 13:04:04;;;;;;;;;;;15.20;56.40;;;;;;6126048;23;20276;-72
2022/09/19 13:06:32;;;;;;;;;;;15.30;55.80;;;;;;6125724;23;19959;-72
2022/09/19 13:09:04;;;;;;;;;;;15.20;56.40;;;;;;6126268;23;19908;-72
2022/09/19 13:11:38;;;;;;;;;;;15.20;57.10;;;;;;6152573;23;19919;-72
2022/09/19 13:14:30;;;;;;;;;;;15.10;55.90;;;;;;6103726;23;19940;-72
2022/09/19 13:25:22;;;;;;;;;;;15.20;52.00;;;;;;6133549;23;19911;-72
2022/09/19 13:28:09;;;;;;;;;;;15.10;51.50;;;;;;6129478;23;19905;-72
2022/09/19 13:30:48;;;;;;;;;;;15.20;51.30;;;;;;6154629;23;20331;-72
2022/09/19 13:33:28;;;;;;;;;;;15.10;52.30;;;;;;6154929;23;20209;-72
2022/09/19 16:10:41;;;;;;;;;;;13.60;57.70;;;;;;6014312;23;19917;-72
2022/09/19 16:13:27;;;;;;;;;;;13.60;57.40;;;;;;6065736;23;19910;-72
2022/09/19 16:15:55;;;;;;;;;;;13.60;57.60;;;;;;6066197;23;19912;-72
2022/09/19 16:18:21;;;;;;;;;;;13.60;56.90;;;;;;6039339;23;19909;-72
2022/09/19 16:21:06;;;;;;;;;;;13.60;57.30;;;;;;6040940;23;20348;-72
2022/09/19 16:23:53;;;;;;;;;;;13.60;57.30;;;;;;6065571;23;19906;-73
2022/09/19 16:26:22;;;;;;;;;;;13.50;57.40;;;;;;6064173;23;20385;-72
2022/09/19 16:28:55;;;;;;;;;;;13.40;57.60;;;;;;6040423;23;19905;-72
2022/09/19 16:31:22;;;;;;;;;;;13.40;58.00;;;;;;6065262;23;19913;-72
2022/09/19 16:33:48;;;;;;;;;;;13.30;58.50;;;;;;6065880;23;20337;-72
2022/09/19 16:36:15;;;;;;;;;;;13.20;58.70;;;;;;6066327;23;19913;-72
2022/09/19 16:39:00;;;;;;;;;;;13.20;59.00;;;;;;6040637;23;20333;-72
2022/09/19 16:41:27;;;;;;;;;;;13.10;59.30;;;;;;6065349;23;20278;-72
2022/09/19 16:44:00;;;;;;;;;;;13.10;59.50;;;;;;6039918;23;19912;-72
2022/09/19 16:46:27;;;;;;;;;;;13.00;59.80;;;;;;6039509;23;19976;-72
2022/09/19 16:48:54;;;;;;;;;;;13.00;59.70;;;;;;6039824;23;19910;-72
2022/09/19 16:51:28;;;;;;;;;;;13.00;59.60;;;;;;6064816;23;19917;-72
2022/09/19 16:53:58;;;;;;;;;;;13.00;59.10;;;;;;6040016;23;19961;-72
2022/09/19 16:56:24;;;;;;;;;;;13.00;59.80;;;;;;6065339;23;19968;-72
2022/09/19 16:58:51;;;;;;;;;;;13.00;60.20;;;;;;6040319;23;20310;-72
2022/09/19 17:01:17;;;;;;;;;;;12.90;59.80;;;;;;6065409;23;20206;-72
2022/09/19 17:03:44;;;;;;;;;;;12.90;59.50;;;;;;6066631;23;19925;-72
2022/09/19 17:53:45;;;;;;;;;;;12.50;62.50;;;;;;6091257;23;19992;-71
2022/09/19 17:56:12;;;;;;;;;;;12.60;63.00;;;;;;6091450;23;19920;-71
2022/09/19 17:58:39;;;;;;;;;;;12.60;63.40;;;;;;6092855;23;19909;-71
2022/09/19 18:03:51;;;;;;;;;;;12.50;63.20;;;;;;6071883;23;19916;-72
2022/09/19 18:06:18;;;;;;;;;;;12.50;63.70;;;;;;6092826;23;19909;-74
2022/09/19 18:08:45;;;;;;;;;;;12.50;64.20;;;;;;6068041;23;19953;-71
2022/09/19 18:11:12;;;;;;;;;;;12.50;64.10;;;;;;6092450;23;19914;-71
2022/09/19 18:13:39;;;;;;;;;;;12.50;64.80;;;;;;6093034;23;19909;-71
2022/09/19 18:16:09;;;;;;;;;;;12.50;65.00;;;;;;6092316;23;19916;-72
2022/09/19 18:18:36;;;;;;;;;;;12.50;65.20;;;;;;6068598;23;20288;-70
2022/09/19 18:21:04;;;;;;;;;;;12.50;64.60;;;;;;6090569;23;20261;-72
2022/09/19 18:23:31;;;;;;;;;;;12.30;65.40;;;;;;6064515;23;19919;-72
2022/09/19 18:25:58;;;;;;;;;;;12.30;65.20;;;;;;6091452;23;19920;-70
2022/09/19 18:28:26;;;;;;;;;;;12.30;65.80;;;;;;6092135;23;20313;-71
2022/09/19 18:30:53;;;;;;;;;;;12.30;65.60;;;;;;6092194;23;19929;-71
2022/09/19 18:33:23;;;;;;;;;;;12.30;66.10;;;;;;6093051;23;19965;-71
2022/09/19 18:35:50;;;;;;;;;;;12.30;65.90;;;;;;6091819;23;19913;-72
2022/09/19 18:38:16;;;;;;;;;;;12.20;66.00;;;;;;6095072;23;19905;-72
2022/09/19 18:40:43;;;;;;;;;;;12.20;65.90;;;;;;6095283;23;19909;-72
2022/09/19 18:43:10;;;;;;;;;;;12.20;66.00;;;;;;6095702;23;19905;-72
2022/09/19 18:45:36;;;;;;;;;;;12.10;66.20;;;;;;6070038;23;19921;-72
2022/09/19 18:48:03;;;;;;;;;;;12.00;66.30;;;;;;6094926;23;19910;-72
2022/09/19 18:50:30;;;;;;;;;;;11.90;66.30;;;;;;6095292;23;19914;-72
2022/09/19 18:52:56;;;;;;;;;;;11.90;66.00;;;;;;6092257;23;20288;-72
2022/09/19 18:55:23;;;;;;;;;;;11.90;66.80;;;;;;6095091;23;20229;-72
2022/09/19 18:57:50;;;;;;;;;;;11.90;66.50;;;;;;6094893;23;19909;-72
2022/09/19 19:00:16;;;;;;;;;;;11.80;66.40;;;;;;6094361;23;20325;-72
2022/09/19 19:02:43;;;;;;;;;;;11.80;66.50;;;;;;6095215;23;19905;-72
2022/09/19 19:05:09;;;;;;;;;;;11.80;66.70;;;;;;6069998;23;19932;-72
2022/09/19 19:07:39;;;;;;;;;;;11.80;66.50;;;;;;6095231;23;19909;-72
2022/09/19 19:10:06;;;;;;;;;;;11.80;66.00;;;;;;6094938;23;20380;-72
2022/09/19 19:12:33;;;;;;;;;;;11.70;66.40;;;;;;6069584;23;19909;-72
2022/09/19 19:14:59;;;;;;;;;;;11.80;66.40;;;;;;6068971;23;20003;-72
2022/09/19 19:17:26;;;;;;;;;;;11.80;67.00;;;;;;6095337;23;19906;-72
2022/09/19 19:19:52;;;;;;;;;;;11.90;66.70;;;;;;6095204;23;19905;-72
2022/09/19 19:22:19;;;;;;;;;;;11.80;66.90;;;;;;6095823;23;19905;-72
2022/09/19 19:24:46;;;;;;;;;;;11.80;67.30;;;;;;6066393;23;19934;-72
2022/09/19 19:27:12;;;;;;;;;;;11.80;67.00;;;;;;6094832;23;19916;-72
2022/09/19 19:29:39;;;;;;;;;;;11.70;66.70;;;;;;6094547;23;19910;-72
2022/09/19 19:32:05;;;;;;;;;;;11.70;66.80;;;;;;6069333;23;20508;-72
2022/09/19 19:34:32;;;;;;;;;;;11.70;67.30;;;;;;6094767;23;19988;-72
2022/09/19 19:36:58;;;;;;;;;;;11.70;67.50;;;;;;6069410;23;19916;-72
2022/09/19 19:39:25;;;;;;;;;;;11.70;68.20;;;;;;6094552;23;19909;-72
2022/09/19 19:41:51;;;;;;;;;;;11.70;68.30;;;;;;6093919;23;19910;-72
2022/09/19 19:44:19;;;;;;;;;;;11.60;67.90;;;;;;6069011;23;19906;-72
2022/09/19 19:46:45;;;;;;;;;;;11.60;67.40;;;;;;6069135;23;19910;-72
2022/09/19 19:49:12;;;;;;;;;;;11.60;67.10;;;;;;6095086;23;19912;-72
2022/09/19 19:51:39;;;;;;;;;;;11.60;67.40;;;;;;6094553;23;19924;-72
2022/09/19 20:26:12;;;;;;;;;;;11.70;66.40;;;;;;6089716;23;20033;-72
2022/09/19 20:28:39;;;;;;;;;;;11.80;66.80;;;;;;6069074;23;19909;-72
2022/09/19 20:31:06;;;;;;;;;;;11.80;66.50;;;;;;6094700;23;19991;-73
2022/09/19 20:33:33;;;;;;;;;;;11.80;66.40;;;;;;6069507;23;19944;-72
2022/09/19 20:36:00;;;;;;;;;;;11.90;66.50;;;;;;6069071;23;20240;-72
2022/09/19 20:38:27;;;;;;;;;;;11.90;66.10;;;;;;6094814;23;19905;-72
2022/09/19 20:40:54;;;;;;;;;;;12.00;65.60;;;;;;6070079;23;20245;-73
2022/09/19 20:43:21;;;;;;;;;;;12.00;66.00;;;;;;6094690;23;19905;-73
2022/09/19 20:45:55;;;;;;;;;;;12.00;65.40;;;;;;6068713;23;19905;-72
2022/09/19 20:48:21;;;;;;;;;;;12.00;65.50;;;;;;6069240;23;19909;-72
2022/09/19 20:50:54;;;;;;;;;;;12.10;65.40;;;;;;6094626;23;20311;-73
2022/09/19 20:53:21;;;;;;;;;;;12.20;65.60;;;;;;6069543;23;19909;-72
2022/09/19 20:55:48;;;;;;;;;;;12.20;65.30;;;;;;6092789;23;19910;-72
2022/09/19 20:58:15;;;;;;;;;;;12.20;65.30;;;;;;6094820;23;19917;-72
2022/09/19 21:00:41;;;;;;;;;;;12.20;65.30;;;;;;6094316;23;19905;-72
2022/09/19 21:03:08;;;;;;;;;;;12.20;65.20;;;;;;6095385;23;19905;-72
2022/09/19 21:05:35;;;;;;;;;;;12.20;65.30;;;;;;6069058;23;19921;-72
2022/09/19 21:08:02;;;;;;;;;;;12.30;64.90;;;;;;6094410;23;19914;-72
2022/09/19 21:10:28;;;;;;;;;;;12.30;64.80;;;;;;6094332;23;20249;-73
2022/09/19 21:12:55;;;;;;;;;;;12.40;64.60;;;;;;6069207;23;19961;-71
2022/09/19 21:15:22;;;;;;;;;;;12.50;64.60;;;;;;6070439;23;19913;-72
2022/09/19 21:17:49;;;;;;;;;;;12.50;64.40;;;;;;6071172;23;19905;-71
2022/09/19 21:20:16;;;;;;;;;;;12.50;64.10;;;;;;6070204;23;20313;-70
2022/09/19 21:22:42;;;;;;;;;;;12.60;64.50;;;;;;6071895;23;19912;-71
2022/09/19 21:25:09;;;;;;;;;;;12.70;63.80;;;;;;6095933;23;19917;-70
2022/09/19 21:27:35;;;;;;;;;;;12.70;64.70;;;;;;6094931;23;19973;-71
2022/09/19 21:30:02;;;;;;;;;;;12.70;64.00;;;;;;6070632;23;19912;-71
2022/09/19 21:32:28;;;;;;;;;;;12.70;63.80;;;;;;6095375;23;19905;-71
2022/09/19 21:34:55;;;;;;;;;;;12.80;63.60;;;;;;6095523;23;19905;-72
2022/09/19 21:37:22;;;;;;;;;;;12.80;63.20;;;;;;6096141;23;20339;-72
2022/09/19 21:39:48;;;;;;;;;;;12.90;63.80;;;;;;6096073;23;19915;-72
2022/09/19 21:42:15;;;;;;;;;;;13.00;63.90;;;;;;6095635;23;19910;-72
2022/09/19 21:44:41;;;;;;;;;;;13.00;63.80;;;;;;6096599;23;19988;-72
2022/09/19 21:47:08;;;;;;;;;;;13.10;63.00;;;;;;6094719;23;19905;-72
2022/09/19 21:49:34;;;;;;;;;;;13.10;62.60;;;;;;6070222;23;19905;-72
2022/09/19 21:52:01;;;;;;;;;;;13.20;62.30;;;;;;6094601;23;19924;-72
2022/09/19 22:12:24;;;;;;;;;;;13.70;61.30;;;;;;6089902;23;19932;-69
2022/09/19 22:14:50;;;;;;;;;;;13.70;61.90;;;;;;6094005;23;19917;-70
2022/09/19 22:17:17;;;;;;;;;;;13.80;61.10;;;;;;6091920;23;19917;-72
2022/09/19 22:19:43;;;;;;;;;;;13.90;61.30;;;;;;6092801;23;19906;-71
2022/09/19 22:22:10;;;;;;;;;;;13.90;61.70;;;;;;6093020;23;19913;-69
2022/09/19 22:24:37;;;;;;;;;;;14.00;61.00;;;;;;6091643;23;19990;-70
2022/09/19 22:27:03;;;;;;;;;;;14.00;61.20;;;;;;6090313;23;19915;-68
2022/09/19 22:29:30;;;;;;;;;;;14.10;61.30;;;;;;6091623;23;20282;-68
2022/09/19 22:31:57;;;;;;;;;;;14.20;60.20;;;;;;6091914;23;19972;-68
2022/09/19 22:34:23;;;;;;;;;;;14.20;60.30;;;;;;6091684;23;19910;-69
2022/09/19 22:36:50;;;;;;;;;;;14.30;61.10;;;;;;6091529;23;19916;-69
2022/09/19 22:39:16;;;;;;;;;;;14.30;60.40;;;;;;6092361;23;19915;-69
2022/09/19 22:41:43;;;;;;;;;;;14.40;60.70;;;;;;6091814;23;19917;-69
2022/09/19 22:44:11;;;;;;;;;;;14.50;60.90;;;;;;6090736;23;19909;-69
2022/09/19 22:46:37;;;;;;;;;;;14.60;61.10;;;;;;6090835;23;19984;-69
2022/09/19 22:49:04;;;;;;;;;;;14.70;60.10;;;;;;6065947;23;19917;-69
2022/09/19 22:51:30;;;;;;;;;;;14.70;60.60;;;;;;6090026;23;20000;-67
2022/09/19 22:53:57;;;;;;;;;;;14.70;60.10;;;;;;6069182;23;19913;-66
2022/09/19 22:56:28;;;;;;;;;;;14.80;60.20;;;;;;6068589;23;19909;-68
2022/09/19 22:58:55;;;;;;;;;;;14.80;59.40;;;;;;6092358;23;19905;-67
2022/09/19 23:01:26;;;;;;;;;;;15.00;60.00;;;;;;6094645;23;19915;-67
2022/09/19 23:03:54;;;;;;;;;;;15.10;60.40;;;;;;6094594;23;19905;-67
2022/09/19 23:06:22;;;;;;;;;;;15.20;59.80;;;;;;6095154;23;19956;-67
2022/09/19 23:08:58;;;;;;;;;;;15.20;59.80;;;;;;6095398;23;19988;-67
2022/09/19 23:58:59;;;;;;;;;;;16.60;65.30;;;;;;6084282;23;19932;-69
